Bonaventure, Canada
Current Conditions -  °F | °C
As of 9:00 PM on Wednesday 22 Oct 2014 (Local Time) from CZBF Reporting Station
Overcast Overcast  
Wind Chill: 37°   Ceiling: 6000
Heat Index: 43°   Visibility: 15mi
Dew Point: 36°   Wind: 10mph
Humidity: 76%   Direction: 70°ENE
Pressure: 30.42"   Gusts: NA
Location:  48.05°N, 65.47°W
Report Text: CZBF 230100Z 07009KT 15SM OVC060 06/02 A3042 RMK SC8 SLP303
Loading
Personal Weather Stations






























Interactive Weather Map
Tropical Storm Tracking
New forecast layout! Learn more

10-Day Weather Forecast

Advertisements
Track Severe Weather on mobile